sensor_id;sensor_type;location;lat;lon;timestamp;P1;durP1;ratioP1;P2;durP2;ratioP2
78402;SDS011;67687;43.508;1.504;2023-03-01T00:02:20;23.55;;;12.82;;
78402;SDS011;67687;43.508;1.504;2023-03-01T00:04:47;24.33;;;12.70;;
78402;SDS011;67687;43.508;1.504;2023-03-01T00:07:14;21.50;;;12.18;;
78402;SDS011;67687;43.508;1.504;2023-03-01T00:09:41;20.17;;;11.63;;
78402;SDS011;67687;43.508;1.504;2023-03-01T00:12:10;21.63;;;11.50;;
78402;SDS011;67687;43.508;1.504;2023-03-01T00:14:39;20.77;;;11.55;;
78402;SDS011;67687;43.508;1.504;2023-03-01T00:17:06;22.25;;;11.45;;
78402;SDS011;67687;43.508;1.504;2023-03-01T00:19:32;22.05;;;11.10;;
78402;SDS011;67687;43.508;1.504;2023-03-01T00:21:59;20.50;;;10.68;;
78402;SDS011;67687;43.508;1.504;2023-03-01T00:24:26;16.67;;;9.50;;
78402;SDS011;67687;43.508;1.504;2023-03-01T00:26:53;14.48;;;8.20;;
78402;SDS011;67687;43.508;1.504;2023-03-01T00:29:21;13.02;;;8.35;;
78402;SDS011;67687;43.508;1.504;2023-03-01T00:31:50;15.90;;;8.45;;
78402;SDS011;67687;43.508;1.504;2023-03-01T00:34:17;15.15;;;8.75;;
78402;SDS011;67687;43.508;1.504;2023-03-01T00:36:43;16.80;;;9.17;;
78402;SDS011;67687;43.508;1.504;2023-03-01T00:39:11;17.60;;;9.63;;
78402;SDS011;67687;43.508;1.504;2023-03-01T00:41:39;16.00;;;8.82;;
78402;SDS011;67687;43.508;1.504;2023-03-01T00:44:06;15.57;;;9.13;;
78402;SDS011;67687;43.508;1.504;2023-03-01T00:46:33;18.85;;;9.50;;
78402;SDS011;67687;43.508;1.504;2023-03-01T00:49:01;16.00;;;8.97;;
78402;SDS011;67687;43.508;1.504;2023-03-01T00:51:29;15.90;;;8.73;;
78402;SDS011;67687;43.508;1.504;2023-03-01T00:53:57;15.15;;;8.85;;
78402;SDS011;67687;43.508;1.504;2023-03-01T00:56:25;17.33;;;9.43;;
78402;SDS011;67687;43.508;1.504;2023-03-01T00:58:52;18.73;;;9.35;;
78402;SDS011;67687;43.508;1.504;2023-03-01T01:01:19;18.57;;;9.27;;
78402;SDS011;67687;43.508;1.504;2023-03-01T01:03:46;15.85;;;9.20;;
78402;SDS011;67687;43.508;1.504;2023-03-01T01:06:17;16.23;;;9.20;;
78402;SDS011;67687;43.508;1.504;2023-03-01T01:08:45;15.43;;;8.50;;
78402;SDS011;67687;43.508;1.504;2023-03-01T01:11:12;15.27;;;8.60;;
78402;SDS011;67687;43.508;1.504;2023-03-01T01:13:39;14.60;;;8.77;;
78402;SDS011;67687;43.508;1.504;2023-03-01T01:16:06;14.75;;;8.48;;
78402;SDS011;67687;43.508;1.504;2023-03-01T01:18:33;15.60;;;8.65;;
78402;SDS011;67687;43.508;1.504;2023-03-01T01:21:03;16.50;;;8.63;;
78402;SDS011;67687;43.508;1.504;2023-03-01T01:23:32;16.73;;;8.50;;
78402;SDS011;67687;43.508;1.504;2023-03-01T01:26:02;14.23;;;8.63;;
78402;SDS011;67687;43.508;1.504;2023-03-01T01:28:30;15.15;;;8.27;;
78402;SDS011;67687;43.508;1.504;2023-03-01T01:30:57;15.57;;;8.90;;
78402;SDS011;67687;43.508;1.504;2023-03-01T01:33:24;18.13;;;8.10;;
78402;SDS011;67687;43.508;1.504;2023-03-01T01:35:50;14.60;;;8.65;;
78402;SDS011;67687;43.508;1.504;2023-03-01T01:38:17;14.77;;;9.00;;
78402;SDS011;67687;43.508;1.504;2023-03-01T01:40:45;18.48;;;9.20;;
78402;SDS011;67687;43.508;1.504;2023-03-01T01:43:15;14.30;;;8.82;;
78402;SDS011;67687;43.508;1.504;2023-03-01T01:45:44;15.70;;;9.02;;
78402;SDS011;67687;43.508;1.504;2023-03-01T01:48:12;17.25;;;8.98;;
78402;SDS011;67687;43.508;1.504;2023-03-01T01:50:43;15.60;;;8.97;;
78402;SDS011;67687;43.508;1.504;2023-03-01T01:53:14;15.70;;;9.30;;
78402;SDS011;67687;43.508;1.504;2023-03-01T01:55:43;15.77;;;9.20;;
78402;SDS011;67687;43.508;1.504;2023-03-01T01:58:15;17.27;;;10.50;;
78402;SDS011;67687;43.508;1.504;2023-03-01T02:00:43;18.58;;;10.02;;
78402;SDS011;67687;43.508;1.504;2023-03-01T02:03:11;17.33;;;10.57;;
78402;SDS011;67687;43.508;1.504;2023-03-01T02:05:40;18.58;;;10.73;;
78402;SDS011;67687;43.508;1.504;2023-03-01T02:08:10;20.33;;;11.27;;
78402;SDS011;67687;43.508;1.504;2023-03-01T02:10:38;19.92;;;11.23;;
78402;SDS011;67687;43.508;1.504;2023-03-01T02:13:06;19.50;;;10.75;;
78402;SDS011;67687;43.508;1.504;2023-03-01T02:15:33;19.13;;;11.20;;
78402;SDS011;67687;43.508;1.504;2023-03-01T02:18:01;21.35;;;11.02;;
78402;SDS011;67687;43.508;1.504;2023-03-01T02:20:31;17.52;;;10.23;;
78402;SDS011;67687;43.508;1.504;2023-03-01T02:23:01;17.05;;;10.23;;
78402;SDS011;67687;43.508;1.504;2023-03-01T02:25:44;18.50;;;10.38;;
78402;SDS011;67687;43.508;1.504;2023-03-01T02:28:30;18.07;;;10.20;;
78402;SDS011;67687;43.508;1.504;2023-03-01T02:30:57;16.60;;;10.05;;
78402;SDS011;67687;43.508;1.504;2023-03-01T02:33:42;23.25;;;11.25;;
78402;SDS011;67687;43.508;1.504;2023-03-01T02:36:10;19.77;;;10.98;;
78402;SDS011;67687;43.508;1.504;2023-03-01T02:38:44;18.45;;;10.73;;
78402;SDS011;67687;43.508;1.504;2023-03-01T02:41:11;18.97;;;10.40;;
78402;SDS011;67687;43.508;1.504;2023-03-01T02:43:41;20.60;;;10.73;;
78402;SDS011;67687;43.508;1.504;2023-03-01T02:46:13;18.92;;;10.98;;
78402;SDS011;67687;43.508;1.504;2023-03-01T02:48:43;19.42;;;10.88;;
78402;SDS011;67687;43.508;1.504;2023-03-01T02:51:14;20.30;;;11.45;;
78402;SDS011;67687;43.508;1.504;2023-03-01T02:53:53;17.97;;;10.30;;
78402;SDS011;67687;43.508;1.504;2023-03-01T02:56:26;19.63;;;10.18;;
78402;SDS011;67687;43.508;1.504;2023-03-01T02:58:55;18.65;;;9.90;;
78402;SDS011;67687;43.508;1.504;2023-03-01T03:01:26;18.27;;;10.07;;
78402;SDS011;67687;43.508;1.504;2023-03-01T03:04:01;18.13;;;10.18;;
78402;SDS011;67687;43.508;1.504;2023-03-01T03:06:29;18.83;;;10.90;;
78402;SDS011;67687;43.508;1.504;2023-03-01T03:08:55;18.33;;;10.07;;
78402;SDS011;67687;43.508;1.504;2023-03-01T03:11:22;16.45;;;9.75;;
78402;SDS011;67687;43.508;1.504;2023-03-01T03:13:49;17.58;;;10.60;;
78402;SDS011;67687;43.508;1.504;2023-03-01T03:16:18;18.52;;;10.50;;
78402;SDS011;67687;43.508;1.504;2023-03-01T03:18:45;20.70;;;10.57;;
78402;SDS011;67687;43.508;1.504;2023-03-01T03:21:12;17.75;;;9.82;;
78402;SDS011;67687;43.508;1.504;2023-03-01T03:23:39;18.55;;;10.20;;
78402;SDS011;67687;43.508;1.504;2023-03-01T03:26:06;15.75;;;9.70;;
78402;SDS011;67687;43.508;1.504;2023-03-01T03:28:33;16.40;;;9.77;;
78402;SDS011;67687;43.508;1.504;2023-03-01T03:31:01;17.60;;;9.63;;
78402;SDS011;67687;43.508;1.504;2023-03-01T03:33:30;17.98;;;9.80;;
78402;SDS011;67687;43.508;1.504;2023-03-01T03:35:57;18.48;;;9.75;;
78402;SDS011;67687;43.508;1.504;2023-03-01T03:38:24;16.23;;;9.52;;
78402;SDS011;67687;43.508;1.504;2023-03-01T03:40:52;16.35;;;9.00;;
78402;SDS011;67687;43.508;1.504;2023-03-01T03:43:26;16.37;;;9.17;;
78402;SDS011;67687;43.508;1.504;2023-03-01T03:45:52;15.60;;;9.30;;
78402;SDS011;67687;43.508;1.504;2023-03-01T03:48:22;16.58;;;9.48;;
78402;SDS011;67687;43.508;1.504;2023-03-01T03:50:51;14.63;;;9.23;;
78402;SDS011;67687;43.508;1.504;2023-03-01T03:53:19;15.35;;;9.10;;
78402;SDS011;67687;43.508;1.504;2023-03-01T03:55:46;17.87;;;8.83;;
78402;SDS011;67687;43.508;1.504;2023-03-01T03:58:14;16.08;;;9.20;;
78402;SDS011;67687;43.508;1.504;2023-03-01T04:00:44;17.08;;;9.52;;
78402;SDS011;67687;43.508;1.504;2023-03-01T04:03:13;17.08;;;9.27;;
78402;SDS011;67687;43.508;1.504;2023-03-01T04:05:41;14.68;;;8.90;;
78402;SDS011;67687;43.508;1.504;2023-03-01T04:08:10;15.17;;;9.00;;
78402;SDS011;67687;43.508;1.504;2023-03-01T04:10:38;14.60;;;8.68;;
78402;SDS011;67687;43.508;1.504;2023-03-01T04:13:06;15.40;;;9.27;;
78402;SDS011;67687;43.508;1.504;2023-03-01T04:15:33;16.02;;;8.45;;
78402;SDS011;67687;43.508;1.504;2023-03-01T04:18:00;16.33;;;8.85;;
78402;SDS011;67687;43.508;1.504;2023-03-01T04:20:28;14.53;;;8.83;;
78402;SDS011;67687;43.508;1.504;2023-03-01T04:22:59;14.45;;;8.57;;
78402;SDS011;67687;43.508;1.504;2023-03-01T04:25:38;15.40;;;9.43;;
78402;SDS011;67687;43.508;1.504;2023-03-01T04:28:06;15.95;;;8.85;;
78402;SDS011;67687;43.508;1.504;2023-03-01T04:30:33;16.85;;;9.57;;
78402;SDS011;67687;43.508;1.504;2023-03-01T04:33:02;15.67;;;8.50;;
78402;SDS011;67687;43.508;1.504;2023-03-01T04:35:30;19.02;;;9.20;;
78402;SDS011;67687;43.508;1.504;2023-03-01T04:37:57;15.45;;;8.93;;
78402;SDS011;67687;43.508;1.504;2023-03-01T04:40:24;15.95;;;9.27;;
78402;SDS011;67687;43.508;1.504;2023-03-01T04:42:53;14.90;;;8.55;;
78402;SDS011;67687;43.508;1.504;2023-03-01T04:45:19;18.27;;;9.60;;
78402;SDS011;67687;43.508;1.504;2023-03-01T04:47:46;14.90;;;9.15;;
78402;SDS011;67687;43.508;1.504;2023-03-01T04:50:14;16.05;;;9.38;;
78402;SDS011;67687;43.508;1.504;2023-03-01T04:52:42;15.93;;;8.70;;
78402;SDS011;67687;43.508;1.504;2023-03-01T04:55:10;20.27;;;9.77;;
78402;SDS011;67687;43.508;1.504;2023-03-01T04:57:37;16.07;;;9.37;;
78402;SDS011;67687;43.508;1.504;2023-03-01T05:00:07;16.58;;;9.05;;
78402;SDS011;67687;43.508;1.504;2023-03-01T05:02:49;16.30;;;9.95;;
78402;SDS011;67687;43.508;1.504;2023-03-01T05:05:19;18.05;;;10.30;;
78402;SDS011;67687;43.508;1.504;2023-03-01T05:07:51;18.20;;;10.20;;
78402;SDS011;67687;43.508;1.504;2023-03-01T05:10:18;17.50;;;10.00;;
78402;SDS011;67687;43.508;1.504;2023-03-01T05:12:45;18.27;;;9.52;;
78402;SDS011;67687;43.508;1.504;2023-03-01T05:15:14;15.63;;;9.20;;
78402;SDS011;67687;43.508;1.504;2023-03-01T05:17:41;16.17;;;9.32;;
78402;SDS011;67687;43.508;1.504;2023-03-01T05:20:08;17.10;;;9.18;;
78402;SDS011;67687;43.508;1.504;2023-03-01T05:22:36;15.77;;;8.67;;
78402;SDS011;67687;43.508;1.504;2023-03-01T05:25:03;27.58;;;12.85;;
78402;SDS011;67687;43.508;1.504;2023-03-01T05:27:32;26.10;;;14.45;;
78402;SDS011;67687;43.508;1.504;2023-03-01T05:29:59;25.48;;;13.52;;
78402;SDS011;67687;43.508;1.504;2023-03-01T05:32:39;26.15;;;13.05;;
78402;SDS011;67687;43.508;1.504;2023-03-01T05:35:08;25.33;;;13.43;;
78402;SDS011;67687;43.508;1.504;2023-03-01T05:37:35;18.98;;;10.40;;
78402;SDS011;67687;43.508;1.504;2023-03-01T05:40:02;18.58;;;10.40;;
78402;SDS011;67687;43.508;1.504;2023-03-01T05:42:30;19.35;;;9.82;;
78402;SDS011;67687;43.508;1.504;2023-03-01T05:44:57;18.25;;;10.00;;
78402;SDS011;67687;43.508;1.504;2023-03-01T05:47:24;17.10;;;9.07;;
78402;SDS011;67687;43.508;1.504;2023-03-01T05:49:52;16.80;;;8.98;;
78402;SDS011;67687;43.508;1.504;2023-03-01T05:52:19;18.85;;;9.65;;
78402;SDS011;67687;43.508;1.504;2023-03-01T05:54:45;16.13;;;8.90;;
78402;SDS011;67687;43.508;1.504;2023-03-01T05:57:12;17.20;;;9.25;;
78402;SDS011;67687;43.508;1.504;2023-03-01T05:59:39;16.97;;;8.87;;
78402;SDS011;67687;43.508;1.504;2023-03-01T06:02:06;16.15;;;10.02;;
78402;SDS011;67687;43.508;1.504;2023-03-01T06:04:33;20.25;;;11.00;;
78402;SDS011;67687;43.508;1.504;2023-03-01T06:07:02;21.58;;;11.07;;
78402;SDS011;67687;43.508;1.504;2023-03-01T06:09:29;19.02;;;10.30;;
78402;SDS011;67687;43.508;1.504;2023-03-01T06:11:55;23.30;;;12.10;;
78402;SDS011;67687;43.508;1.504;2023-03-01T06:14:22;26.90;;;13.05;;
78402;SDS011;67687;43.508;1.504;2023-03-01T06:16:49;26.10;;;12.70;;
78402;SDS011;67687;43.508;1.504;2023-03-01T06:19:16;22.35;;;11.95;;
78402;SDS011;67687;43.508;1.504;2023-03-01T06:21:43;20.98;;;10.63;;
78402;SDS011;67687;43.508;1.504;2023-03-01T06:24:11;19.40;;;10.70;;
78402;SDS011;67687;43.508;1.504;2023-03-01T06:26:38;22.20;;;12.55;;
78402;SDS011;67687;43.508;1.504;2023-03-01T06:29:04;23.98;;;13.25;;
78402;SDS011;67687;43.508;1.504;2023-03-01T06:31:32;28.58;;;17.30;;
78402;SDS011;67687;43.508;1.504;2023-03-01T06:33:59;28.13;;;17.23;;
78402;SDS011;67687;43.508;1.504;2023-03-01T06:36:26;32.77;;;18.43;;
78402;SDS011;67687;43.508;1.504;2023-03-01T06:38:53;26.48;;;14.80;;
78402;SDS011;67687;43.508;1.504;2023-03-01T06:41:21;25.70;;;13.60;;
78402;SDS011;67687;43.508;1.504;2023-03-01T06:43:48;22.40;;;13.02;;
78402;SDS011;67687;43.508;1.504;2023-03-01T06:46:14;25.20;;;13.45;;
78402;SDS011;67687;43.508;1.504;2023-03-01T06:48:41;20.37;;;11.70;;
78402;SDS011;67687;43.508;1.504;2023-03-01T06:51:08;19.80;;;11.73;;
78402;SDS011;67687;43.508;1.504;2023-03-01T06:53:35;20.42;;;11.88;;
78402;SDS011;67687;43.508;1.504;2023-03-01T06:56:02;19.63;;;11.40;;
78402;SDS011;67687;43.508;1.504;2023-03-01T06:58:30;22.58;;;13.35;;
78402;SDS011;67687;43.508;1.504;2023-03-01T07:00:57;22.73;;;12.73;;
78402;SDS011;67687;43.508;1.504;2023-03-01T07:03:23;21.73;;;13.13;;
78402;SDS011;67687;43.508;1.504;2023-03-01T07:05:50;21.77;;;12.95;;
78402;SDS011;67687;43.508;1.504;2023-03-01T07:08:17;24.02;;;13.25;;
78402;SDS011;67687;43.508;1.504;2023-03-01T07:10:44;25.85;;;13.85;;
78402;SDS011;67687;43.508;1.504;2023-03-01T07:13:11;22.50;;;13.27;;
78402;SDS011;67687;43.508;1.504;2023-03-01T07:15:40;23.20;;;13.40;;
78402;SDS011;67687;43.508;1.504;2023-03-01T07:18:07;22.10;;;13.65;;
78402;SDS011;67687;43.508;1.504;2023-03-01T07:20:34;22.35;;;12.93;;
78402;SDS011;67687;43.508;1.504;2023-03-01T07:23:01;23.48;;;13.32;;
78402;SDS011;67687;43.508;1.504;2023-03-01T07:25:28;17.30;;;11.30;;
78402;SDS011;67687;43.508;1.504;2023-03-01T07:27:55;25.20;;;13.60;;
78402;SDS011;67687;43.508;1.504;2023-03-01T07:30:21;28.50;;;15.95;;
78402;SDS011;67687;43.508;1.504;2023-03-01T07:32:52;26.27;;;14.40;;
78402;SDS011;67687;43.508;1.504;2023-03-01T07:35:19;23.90;;;13.63;;
78402;SDS011;67687;43.508;1.504;2023-03-01T07:37:46;25.13;;;13.70;;
78402;SDS011;67687;43.508;1.504;2023-03-01T07:40:13;22.73;;;12.52;;
78402;SDS011;67687;43.508;1.504;2023-03-01T07:42:40;22.70;;;13.35;;
78402;SDS011;67687;43.508;1.504;2023-03-01T07:45:07;20.38;;;12.75;;
78402;SDS011;67687;43.508;1.504;2023-03-01T07:47:35;22.20;;;13.63;;
78402;SDS011;67687;43.508;1.504;2023-03-01T07:50:07;20.90;;;12.73;;
78402;SDS011;67687;43.508;1.504;2023-03-01T07:52:36;21.65;;;13.00;;
78402;SDS011;67687;43.508;1.504;2023-03-01T07:55:07;21.63;;;13.30;;
78402;SDS011;67687;43.508;1.504;2023-03-01T07:57:34;21.90;;;13.35;;
78402;SDS011;67687;43.508;1.504;2023-03-01T08:00:02;19.65;;;13.35;;
78402;SDS011;67687;43.508;1.504;2023-03-01T08:02:29;21.73;;;13.17;;
78402;SDS011;67687;43.508;1.504;2023-03-01T08:04:56;22.80;;;13.93;;
78402;SDS011;67687;43.508;1.504;2023-03-01T08:07:25;20.25;;;12.73;;
78402;SDS011;67687;43.508;1.504;2023-03-01T08:09:52;20.17;;;12.65;;
78402;SDS011;67687;43.508;1.504;2023-03-01T08:12:19;23.60;;;13.95;;
78402;SDS011;67687;43.508;1.504;2023-03-01T08:14:45;21.40;;;13.93;;
78402;SDS011;67687;43.508;1.504;2023-03-01T08:17:13;21.48;;;13.10;;
78402;SDS011;67687;43.508;1.504;2023-03-01T08:19:40;19.90;;;12.85;;
78402;SDS011;67687;43.508;1.504;2023-03-01T08:22:08;23.45;;;14.15;;
78402;SDS011;67687;43.508;1.504;2023-03-01T08:24:37;21.38;;;13.00;;
78402;SDS011;67687;43.508;1.504;2023-03-01T08:27:03;24.07;;;13.57;;
78402;SDS011;67687;43.508;1.504;2023-03-01T08:29:31;20.35;;;13.73;;
78402;SDS011;67687;43.508;1.504;2023-03-01T08:31:58;24.55;;;14.07;;
78402;SDS011;67687;43.508;1.504;2023-03-01T08:34:26;22.38;;;12.90;;
78402;SDS011;67687;43.508;1.504;2023-03-01T08:36:52;22.70;;;13.95;;
78402;SDS011;67687;43.508;1.504;2023-03-01T08:39:19;26.77;;;14.00;;
78402;SDS011;67687;43.508;1.504;2023-03-01T08:41:48;22.02;;;13.90;;
78402;SDS011;67687;43.508;1.504;2023-03-01T08:44:15;19.95;;;12.63;;
78402;SDS011;67687;43.508;1.504;2023-03-01T08:46:43;19.15;;;12.27;;
78402;SDS011;67687;43.508;1.504;2023-03-01T08:49:12;19.50;;;11.38;;
78402;SDS011;67687;43.508;1.504;2023-03-01T08:51:40;22.20;;;13.03;;
78402;SDS011;67687;43.508;1.504;2023-03-01T08:54:09;18.02;;;11.23;;
78402;SDS011;67687;43.508;1.504;2023-03-01T08:56:37;14.45;;;8.40;;
78402;SDS011;67687;43.508;1.504;2023-03-01T08:59:05;13.50;;;7.22;;
78402;SDS011;67687;43.508;1.504;2023-03-01T09:01:33;12.98;;;7.72;;
78402;SDS011;67687;43.508;1.504;2023-03-01T09:04:01;12.03;;;7.43;;
78402;SDS011;67687;43.508;1.504;2023-03-01T09:06:29;13.40;;;7.70;;
78402;SDS011;67687;43.508;1.504;2023-03-01T09:08:58;12.95;;;7.53;;
78402;SDS011;67687;43.508;1.504;2023-03-01T09:11:25;10.75;;;6.93;;
78402;SDS011;67687;43.508;1.504;2023-03-01T09:13:51;12.15;;;7.32;;
78402;SDS011;67687;43.508;1.504;2023-03-01T09:16:20;12.53;;;7.60;;
78402;SDS011;67687;43.508;1.504;2023-03-01T09:18:48;13.02;;;7.32;;
78402;SDS011;67687;43.508;1.504;2023-03-01T09:21:16;10.02;;;6.80;;
78402;SDS011;67687;43.508;1.504;2023-03-01T09:23:45;10.23;;;6.80;;
78402;SDS011;67687;43.508;1.504;2023-03-01T09:26:12;10.65;;;7.22;;
78402;SDS011;67687;43.508;1.504;2023-03-01T09:28:41;10.40;;;7.40;;
78402;SDS011;67687;43.508;1.504;2023-03-01T09:31:09;10.77;;;7.00;;
78402;SDS011;67687;43.508;1.504;2023-03-01T09:33:39;8.90;;;6.45;;
78402;SDS011;67687;43.508;1.504;2023-03-01T09:36:07;10.63;;;7.28;;
78402;SDS011;67687;43.508;1.504;2023-03-01T09:38:36;10.73;;;7.25;;
78402;SDS011;67687;43.508;1.504;2023-03-01T09:41:08;13.73;;;7.10;;
78402;SDS011;67687;43.508;1.504;2023-03-01T09:43:38;10.68;;;7.50;;
78402;SDS011;67687;43.508;1.504;2023-03-01T09:46:09;10.48;;;6.72;;
78402;SDS011;67687;43.508;1.504;2023-03-01T09:48:41;10.15;;;7.00;;
78402;SDS011;67687;43.508;1.504;2023-03-01T09:51:12;10.55;;;7.43;;
78402;SDS011;67687;43.508;1.504;2023-03-01T09:53:41;10.57;;;6.83;;
78402;SDS011;67687;43.508;1.504;2023-03-01T09:56:11;11.93;;;8.18;;
78402;SDS011;67687;43.508;1.504;2023-03-01T09:58:46;11.55;;;7.50;;
78402;SDS011;67687;43.508;1.504;2023-03-01T10:01:23;10.35;;;7.30;;
78402;SDS011;67687;43.508;1.504;2023-03-01T10:04:02;11.43;;;8.32;;
78402;SDS011;67687;43.508;1.504;2023-03-01T10:06:35;11.93;;;7.20;;
78402;SDS011;67687;43.508;1.504;2023-03-01T10:09:03;12.35;;;7.35;;
78402;SDS011;67687;43.508;1.504;2023-03-01T10:11:32;12.52;;;7.78;;
78402;SDS011;67687;43.508;1.504;2023-03-01T10:14:03;10.27;;;7.38;;
78402;SDS011;67687;43.508;1.504;2023-03-01T10:16:34;12.52;;;7.97;;
78402;SDS011;67687;43.508;1.504;2023-03-01T10:19:09;13.77;;;8.20;;
78402;SDS011;67687;43.508;1.504;2023-03-01T10:21:39;12.10;;;8.20;;
78402;SDS011;67687;43.508;1.504;2023-03-01T10:24:10;11.95;;;8.10;;
78402;SDS011;67687;43.508;1.504;2023-03-01T10:26:41;15.32;;;9.13;;
78402;SDS011;67687;43.508;1.504;2023-03-01T10:29:13;13.25;;;8.88;;
78402;SDS011;67687;43.508;1.504;2023-03-01T10:31:41;13.17;;;8.70;;
78402;SDS011;67687;43.508;1.504;2023-03-01T10:34:12;14.98;;;9.18;;
78402;SDS011;67687;43.508;1.504;2023-03-01T10:36:41;13.80;;;9.10;;
78402;SDS011;67687;43.508;1.504;2023-03-01T10:39:13;13.85;;;9.10;;
78402;SDS011;67687;43.508;1.504;2023-03-01T10:41:52;12.52;;;8.27;;
78402;SDS011;67687;43.508;1.504;2023-03-01T10:44:41;12.87;;;8.57;;
78402;SDS011;67687;43.508;1.504;2023-03-01T10:47:20;12.38;;;8.43;;
78402;SDS011;67687;43.508;1.504;2023-03-01T10:49:54;11.00;;;7.78;;
78402;SDS011;67687;43.508;1.504;2023-03-01T10:52:26;11.95;;;7.30;;
78402;SDS011;67687;43.508;1.504;2023-03-01T10:54:55;11.20;;;7.28;;
78402;SDS011;67687;43.508;1.504;2023-03-01T10:57:30;9.57;;;6.30;;
78402;SDS011;67687;43.508;1.504;2023-03-01T11:00:10;9.52;;;6.65;;
78402;SDS011;67687;43.508;1.504;2023-03-01T11:02:42;12.32;;;7.90;;
78402;SDS011;67687;43.508;1.504;2023-03-01T11:05:16;12.43;;;6.80;;
78402;SDS011;67687;43.508;1.504;2023-03-01T11:07:48;8.88;;;6.30;;
78402;SDS011;67687;43.508;1.504;2023-03-01T11:10:20;8.83;;;6.10;;
78402;SDS011;67687;43.508;1.504;2023-03-01T11:12:48;9.05;;;5.72;;
78402;SDS011;67687;43.508;1.504;2023-03-01T11:15:19;9.25;;;5.82;;
78402;SDS011;67687;43.508;1.504;2023-03-01T11:17:47;10.70;;;5.72;;
78402;SDS011;67687;43.508;1.504;2023-03-01T11:20:17;8.50;;;5.75;;
78402;SDS011;67687;43.508;1.504;2023-03-01T11:22:50;8.73;;;5.97;;
78402;SDS011;67687;43.508;1.504;2023-03-01T11:25:20;9.15;;;6.47;;
78402;SDS011;67687;43.508;1.504;2023-03-01T11:27:51;9.05;;;6.55;;
78402;SDS011;67687;43.508;1.504;2023-03-01T11:30:19;9.23;;;5.82;;
78402;SDS011;67687;43.508;1.504;2023-03-01T11:32:50;10.15;;;6.38;;
78402;SDS011;67687;43.508;1.504;2023-03-01T11:35:24;9.10;;;5.43;;
78402;SDS011;67687;43.508;1.504;2023-03-01T11:37:56;8.43;;;5.60;;
78402;SDS011;67687;43.508;1.504;2023-03-01T11:40:29;11.77;;;6.20;;
78402;SDS011;67687;43.508;1.504;2023-03-01T11:43:01;8.77;;;5.93;;
78402;SDS011;67687;43.508;1.504;2023-03-01T11:45:34;9.57;;;5.57;;
78402;SDS011;67687;43.508;1.504;2023-03-01T11:48:13;10.63;;;6.50;;
78402;SDS011;67687;43.508;1.504;2023-03-01T11:50:51;10.02;;;5.72;;
78402;SDS011;67687;43.508;1.504;2023-03-01T11:53:34;10.88;;;6.57;;
78402;SDS011;67687;43.508;1.504;2023-03-01T11:56:15;8.70;;;6.07;;
78402;SDS011;67687;43.508;1.504;2023-03-01T11:58:52;10.00;;;6.13;;
78402;SDS011;67687;43.508;1.504;2023-03-01T12:01:43;10.40;;;5.97;;
78402;SDS011;67687;43.508;1.504;2023-03-01T12:07:17;10.80;;;6.88;;
78402;SDS011;67687;43.508;1.504;2023-03-01T12:09:59;9.85;;;6.30;;
78402;SDS011;67687;43.508;1.504;2023-03-01T12:12:36;11.75;;;6.28;;
78402;SDS011;67687;43.508;1.504;2023-03-01T12:18:16;9.57;;;6.82;;
78402;SDS011;67687;43.508;1.504;2023-03-01T12:21:02;12.40;;;6.43;;
78402;SDS011;67687;43.508;1.504;2023-03-01T12:23:42;8.63;;;5.88;;
78402;SDS011;67687;43.508;1.504;2023-03-01T12:26:20;8.27;;;5.68;;
78402;SDS011;67687;43.508;1.504;2023-03-01T12:28:59;9.90;;;6.17;;
78402;SDS011;67687;43.508;1.504;2023-03-01T12:31:47;9.40;;;6.35;;
78402;SDS011;67687;43.508;1.504;2023-03-01T12:37:42;9.65;;;6.43;;
78402;SDS011;67687;43.508;1.504;2023-03-01T12:40:19;9.40;;;6.18;;
78402;SDS011;67687;43.508;1.504;2023-03-01T12:42:54;9.83;;;6.47;;
78402;SDS011;67687;43.508;1.504;2023-03-01T12:45:32;11.48;;;6.50;;
78402;SDS011;67687;43.508;1.504;2023-03-01T12:48:09;9.60;;;6.60;;
78402;SDS011;67687;43.508;1.504;2023-03-01T12:50:46;8.77;;;6.47;;
78402;SDS011;67687;43.508;1.504;2023-03-01T12:53:19;8.55;;;6.15;;
78402;SDS011;67687;43.508;1.504;2023-03-01T12:55:50;9.93;;;6.40;;
78402;SDS011;67687;43.508;1.504;2023-03-01T12:58:21;10.93;;;6.68;;
78402;SDS011;67687;43.508;1.504;2023-03-01T13:00:54;10.60;;;6.65;;
78402;SDS011;67687;43.508;1.504;2023-03-01T13:03:29;11.35;;;6.82;;
78402;SDS011;67687;43.508;1.504;2023-03-01T13:06:06;10.05;;;6.18;;
78402;SDS011;67687;43.508;1.504;2023-03-01T13:08:36;9.67;;;6.43;;
78402;SDS011;67687;43.508;1.504;2023-03-01T13:11:14;9.38;;;6.47;;
78402;SDS011;67687;43.508;1.504;2023-03-01T13:13:43;10.32;;;7.10;;
78402;SDS011;67687;43.508;1.504;2023-03-01T13:16:20;10.85;;;6.95;;
78402;SDS011;67687;43.508;1.504;2023-03-01T13:18:49;10.90;;;6.40;;
78402;SDS011;67687;43.508;1.504;2023-03-01T13:21:28;10.10;;;6.83;;
78402;SDS011;67687;43.508;1.504;2023-03-01T13:23:57;11.18;;;6.70;;
78402;SDS011;67687;43.508;1.504;2023-03-01T13:26:25;11.48;;;7.00;;
78402;SDS011;67687;43.508;1.504;2023-03-01T13:28:52;10.52;;;6.32;;
78402;SDS011;67687;43.508;1.504;2023-03-01T13:34:42;9.80;;;6.47;;
78402;SDS011;67687;43.508;1.504;2023-03-01T13:37:10;9.38;;;6.00;;
78402;SDS011;67687;43.508;1.504;2023-03-01T13:39:45;10.00;;;6.78;;
78402;SDS011;67687;43.508;1.504;2023-03-01T13:42:30;10.07;;;6.25;;
78402;SDS011;67687;43.508;1.504;2023-03-01T13:45:24;8.77;;;6.10;;
78402;SDS011;67687;43.508;1.504;2023-03-01T13:48:01;10.10;;;7.03;;
78402;SDS011;67687;43.508;1.504;2023-03-01T13:50:31;10.77;;;6.65;;
78402;SDS011;67687;43.508;1.504;2023-03-01T13:53:00;8.82;;;6.18;;
78402;SDS011;67687;43.508;1.504;2023-03-01T13:55:34;8.88;;;6.22;;
78402;SDS011;67687;43.508;1.504;2023-03-01T13:58:13;9.80;;;6.00;;
78402;SDS011;67687;43.508;1.504;2023-03-01T14:00:42;8.80;;;5.33;;
78402;SDS011;67687;43.508;1.504;2023-03-01T14:03:10;9.70;;;6.20;;
78402;SDS011;67687;43.508;1.504;2023-03-01T14:05:39;10.02;;;6.47;;
78402;SDS011;67687;43.508;1.504;2023-03-01T14:14:01;10.50;;;5.93;;
78402;SDS011;67687;43.508;1.504;2023-03-01T14:16:36;8.00;;;5.80;;
78402;SDS011;67687;43.508;1.504;2023-03-01T14:19:14;9.02;;;5.85;;
78402;SDS011;67687;43.508;1.504;2023-03-01T14:21:42;7.68;;;5.50;;
78402;SDS011;67687;43.508;1.504;2023-03-01T14:24:15;9.77;;;6.20;;
78402;SDS011;67687;43.508;1.504;2023-03-01T14:26:44;9.10;;;5.63;;
78402;SDS011;67687;43.508;1.504;2023-03-01T14:29:24;11.48;;;6.18;;
78402;SDS011;67687;43.508;1.504;2023-03-01T14:32:08;8.93;;;5.80;;
78402;SDS011;67687;43.508;1.504;2023-03-01T14:34:35;9.10;;;6.00;;
78402;SDS011;67687;43.508;1.504;2023-03-01T14:37:09;8.90;;;5.50;;
78402;SDS011;67687;43.508;1.504;2023-03-01T14:39:37;10.20;;;5.80;;
78402;SDS011;67687;43.508;1.504;2023-03-01T14:42:04;8.68;;;5.45;;
78402;SDS011;67687;43.508;1.504;2023-03-01T14:44:32;9.05;;;5.65;;
78402;SDS011;67687;43.508;1.504;2023-03-01T14:47:02;8.45;;;5.80;;
78402;SDS011;67687;43.508;1.504;2023-03-01T14:49:30;8.80;;;5.75;;
78402;SDS011;67687;43.508;1.504;2023-03-01T14:51:59;8.50;;;5.87;;
78402;SDS011;67687;43.508;1.504;2023-03-01T14:54:27;10.85;;;6.45;;
78402;SDS011;67687;43.508;1.504;2023-03-01T14:57:05;9.27;;;6.13;;
78402;SDS011;67687;43.508;1.504;2023-03-01T14:59:34;9.55;;;5.80;;
78402;SDS011;67687;43.508;1.504;2023-03-01T15:02:01;9.13;;;5.90;;
78402;SDS011;67687;43.508;1.504;2023-03-01T15:04:28;10.33;;;6.50;;
78402;SDS011;67687;43.508;1.504;2023-03-01T15:06:56;9.73;;;6.15;;
78402;SDS011;67687;43.508;1.504;2023-03-01T15:09:29;9.32;;;6.20;;